sensor_id;sensor_type;location;lat;lon;timestamp;pressure;altitude;pressure_sealevel;temperature;humidity
45888;BME280;31595;51.418;7.572;2023-03-18T00:00:18;99561.63;;;13.66;61.17
45888;BME280;31595;51.418;7.572;2023-03-18T00:02:47;99561.63;;;13.66;60.63
45888;BME280;31595;51.418;7.572;2023-03-18T00:05:15;99541.88;;;13.59;61.62
45888;BME280;31595;51.418;7.572;2023-03-18T00:07:43;99534.91;;;13.69;61.08
45888;BME280;31595;51.418;7.572;2023-03-18T00:10:11;99550.97;;;13.56;61.47
45888;BME280;31595;51.418;7.572;2023-03-18T00:12:39;99563.41;;;13.58;61.33
45888;BME280;31595;51.418;7.572;2023-03-18T00:15:10;99549.25;;;13.51;61.47
45888;BME280;31595;51.418;7.572;2023-03-18T00:17:37;99541.88;;;13.59;60.81
45888;BME280;31595;51.418;7.572;2023-03-18T00:20:07;99537.44;;;13.58;61.67
45888;BME280;31595;51.418;7.572;2023-03-18T00:22:37;99542.31;;;13.61;61.66
45888;BME280;31595;51.418;7.572;2023-03-18T00:25:07;99544.84;;;13.66;61.14
45888;BME280;31595;51.418;7.572;2023-03-18T00:27:35;99545.66;;;13.67;60.82
45888;BME280;31595;51.418;7.572;2023-03-18T00:30:04;99548.53;;;13.54;60.54
45888;BME280;31595;51.418;7.572;2023-03-18T00:32:32;99547.16;;;13.48;61.50
45888;BME280;31595;51.418;7.572;2023-03-18T00:35:00;99551.69;;;13.53;60.98
45888;BME280;31595;51.418;7.572;2023-03-18T00:37:29;99552.75;;;13.48;61.54
45888;BME280;31595;51.418;7.572;2023-03-18T00:39:58;99549.81;;;13.57;61.62
45888;BME280;31595;51.418;7.572;2023-03-18T00:42:32;99540.78;;;13.64;61.26
45888;BME280;31595;51.418;7.572;2023-03-18T00:45:05;99560.09;;;13.53;61.91
45888;BME280;31595;51.418;7.572;2023-03-18T00:47:33;99552.91;;;13.39;62.00
45888;BME280;31595;51.418;7.572;2023-03-18T00:50:01;99542.03;;;13.50;62.03
45888;BME280;31595;51.418;7.572;2023-03-18T00:52:28;99566.75;;;13.48;62.52
45888;BME280;31595;51.418;7.572;2023-03-18T00:54:55;99555.44;;;13.45;62.01
45888;BME280;31595;51.418;7.572;2023-03-18T00:57:24;99556.56;;;13.56;61.42
45888;BME280;31595;51.418;7.572;2023-03-18T00:59:51;99553.31;;;13.54;62.56
45888;BME280;31595;51.418;7.572;2023-03-18T01:02:18;99546.09;;;13.53;62.04
45888;BME280;31595;51.418;7.572;2023-03-18T01:04:48;99552.69;;;13.60;62.14
45888;BME280;31595;51.418;7.572;2023-03-18T01:07:16;99571.72;;;13.55;62.87
45888;BME280;31595;51.418;7.572;2023-03-18T01:09:43;99554.03;;;13.51;63.10
45888;BME280;31595;51.418;7.572;2023-03-18T01:12:11;99546.16;;;13.56;62.07
45888;BME280;31595;51.418;7.572;2023-03-18T01:14:40;99542.22;;;13.57;61.82
45888;BME280;31595;51.418;7.572;2023-03-18T01:17:08;99542.72;;;13.47;63.26
45888;BME280;31595;51.418;7.572;2023-03-18T01:19:36;99535.72;;;13.53;62.53
45888;BME280;31595;51.418;7.572;2023-03-18T01:22:03;99531.66;;;13.51;62.66
45888;BME280;31595;51.418;7.572;2023-03-18T01:24:31;99550.47;;;13.38;63.27
45888;BME280;31595;51.418;7.572;2023-03-18T01:26:58;99545.69;;;13.38;63.52
45888;BME280;31595;51.418;7.572;2023-03-18T01:29:26;99539.63;;;13.36;64.17
45888;BME280;31595;51.418;7.572;2023-03-18T01:31:54;99541.81;;;13.43;63.16
45888;BME280;31595;51.418;7.572;2023-03-18T01:34:22;99553.00;;;13.43;64.09
45888;BME280;31595;51.418;7.572;2023-03-18T01:36:50;99555.97;;;13.34;64.43
45888;BME280;31595;51.418;7.572;2023-03-18T01:39:17;99563.88;;;13.32;64.08
45888;BME280;31595;51.418;7.572;2023-03-18T01:41:45;99551.91;;;13.32;64.83
45888;BME280;31595;51.418;7.572;2023-03-18T01:44:13;99553.50;;;13.33;64.07
45888;BME280;31595;51.418;7.572;2023-03-18T01:46:43;99549.63;;;13.37;64.80
45888;BME280;31595;51.418;7.572;2023-03-18T01:49:17;99553.50;;;13.33;65.00
45888;BME280;31595;51.418;7.572;2023-03-18T01:51:48;99557.94;;;13.34;65.53
45888;BME280;31595;51.418;7.572;2023-03-18T01:54:16;99567.25;;;13.38;65.65
45888;BME280;31595;51.418;7.572;2023-03-18T01:56:46;99561.03;;;13.45;64.74
45888;BME280;31595;51.418;7.572;2023-03-18T01:59:15;99580.97;;;13.43;64.51
45888;BME280;31595;51.418;7.572;2023-03-18T02:01:47;99554.03;;;13.51;64.50
45888;BME280;31595;51.418;7.572;2023-03-18T02:04:18;99556.53;;;13.40;65.09
45888;BME280;31595;51.418;7.572;2023-03-18T02:06:47;99545.19;;;13.49;65.82
45888;BME280;31595;51.418;7.572;2023-03-18T02:09:14;99547.06;;;13.45;65.68
45888;BME280;31595;51.418;7.572;2023-03-18T02:11:44;99547.91;;;13.61;64.93
45888;BME280;31595;51.418;7.572;2023-03-18T02:14:15;99548.09;;;13.52;65.54
45888;BME280;31595;51.418;7.572;2023-03-18T02:16:46;99553.97;;;13.63;64.75
45888;BME280;31595;51.418;7.572;2023-03-18T02:19:25;99562.38;;;13.63;64.55
45888;BME280;31595;51.418;7.572;2023-03-18T02:22:02;99560.72;;;13.62;65.38
45888;BME280;31595;51.418;7.572;2023-03-18T02:24:38;99559.91;;;13.62;65.72
45888;BME280;31595;51.418;7.572;2023-03-18T02:27:18;99566.78;;;13.64;65.01
45888;BME280;31595;51.418;7.572;2023-03-18T02:29:47;99575.28;;;13.68;65.80
45888;BME280;31595;51.418;7.572;2023-03-18T02:32:16;99569.78;;;13.71;64.94
45888;BME280;31595;51.418;7.572;2023-03-18T02:34:45;99563.06;;;13.60;65.93
45888;BME280;31595;51.418;7.572;2023-03-18T02:37:13;99562.25;;;13.59;65.67
45888;BME280;31595;51.418;7.572;2023-03-18T02:39:41;99550.91;;;13.68;66.04
45888;BME280;31595;51.418;7.572;2023-03-18T02:42:10;99542.56;;;13.56;66.53
45888;BME280;31595;51.418;7.572;2023-03-18T02:44:39;99547.50;;;13.47;65.71
45888;BME280;31595;51.418;7.572;2023-03-18T02:47:09;99536.31;;;13.47;66.33
45888;BME280;31595;51.418;7.572;2023-03-18T02:49:37;99537.19;;;13.35;66.12
45888;BME280;31595;51.418;7.572;2023-03-18T02:52:05;99542.53;;;13.40;66.81
45888;BME280;31595;51.418;7.572;2023-03-18T02:54:33;99551.09;;;13.31;66.48
45888;BME280;31595;51.418;7.572;2023-03-18T02:57:00;99548.03;;;13.36;67.02
45888;BME280;31595;51.418;7.572;2023-03-18T02:59:28;99548.03;;;13.36;67.08
45888;BME280;31595;51.418;7.572;2023-03-18T03:01:59;99552.25;;;13.30;66.18
45888;BME280;31595;51.418;7.572;2023-03-18T03:04:26;99548.28;;;13.31;66.73
45888;BME280;31595;51.418;7.572;2023-03-18T03:06:55;99552.69;;;13.32;66.63
45888;BME280;31595;51.418;7.572;2023-03-18T03:09:23;99558.75;;;13.22;66.58
45888;BME280;31595;51.418;7.572;2023-03-18T03:11:50;99565.63;;;13.25;66.38
45888;BME280;31595;51.418;7.572;2023-03-18T03:14:18;99567.97;;;13.23;66.42
45888;BME280;31595;51.418;7.572;2023-03-18T03:16:45;99565.06;;;13.19;67.27
45888;BME280;31595;51.418;7.572;2023-03-18T03:19:14;99568.56;;;13.16;67.46
45888;BME280;31595;51.418;7.572;2023-03-18T03:21:42;99571.50;;;13.07;67.97
45888;BME280;31595;51.418;7.572;2023-03-18T03:24:09;99566.53;;;13.00;67.92
45888;BME280;31595;51.418;7.572;2023-03-18T03:26:36;99560.22;;;12.91;68.26
45888;BME280;31595;51.418;7.572;2023-03-18T03:29:04;99564.56;;;12.89;67.99
45888;BME280;31595;51.418;7.572;2023-03-18T03:31:32;99571.22;;;12.84;68.51
45888;BME280;31595;51.418;7.572;2023-03-18T03:33:59;99566.91;;;12.74;69.19
45888;BME280;31595;51.418;7.572;2023-03-18T03:36:28;99577.13;;;12.83;68.30
45888;BME280;31595;51.418;7.572;2023-03-18T03:38:56;99577.13;;;12.83;68.56
45888;BME280;31595;51.418;7.572;2023-03-18T03:41:23;99584.97;;;12.77;69.40
45888;BME280;31595;51.418;7.572;2023-03-18T03:43:51;99580.53;;;12.76;69.49
45888;BME280;31595;51.418;7.572;2023-03-18T03:46:18;99589.84;;;12.80;69.12
45888;BME280;31595;51.418;7.572;2023-03-18T03:48:45;99587.31;;;12.75;68.97
45888;BME280;31595;51.418;7.572;2023-03-18T03:51:13;99582.06;;;12.73;69.21
45888;BME280;31595;51.418;7.572;2023-03-18T03:53:42;99593.22;;;12.73;69.38
45888;BME280;31595;51.418;7.572;2023-03-18T03:56:11;99591.97;;;12.71;68.91
45888;BME280;31595;51.418;7.572;2023-03-18T03:58:38;99593.81;;;12.67;69.47
45888;BME280;31595;51.418;7.572;2023-03-18T04:01:05;99598.34;;;12.59;69.50
45888;BME280;31595;51.418;7.572;2023-03-18T04:03:33;99589.63;;;12.61;69.74
45888;BME280;31595;51.418;7.572;2023-03-18T04:06:00;99597.75;;;12.53;70.01
45888;BME280;31595;51.418;7.572;2023-03-18T04:08:28;99601.50;;;12.45;70.16
45888;BME280;31595;51.418;7.572;2023-03-18T04:10:57;99608.97;;;12.41;70.37
45888;BME280;31595;51.418;7.572;2023-03-18T04:13:24;99604.06;;;12.38;70.33
45888;BME280;31595;51.418;7.572;2023-03-18T04:15:51;99603.81;;;12.31;71.12
45888;BME280;31595;51.418;7.572;2023-03-18T04:18:19;99604.63;;;12.31;70.72
45888;BME280;31595;51.418;7.572;2023-03-18T04:20:47;99610.91;;;12.28;71.39
45888;BME280;31595;51.418;7.572;2023-03-18T04:23:14;99606.16;;;12.29;71.09
45888;BME280;31595;51.418;7.572;2023-03-18T04:25:41;99609.38;;;12.18;71.35
45888;BME280;31595;51.418;7.572;2023-03-18T04:28:10;99611.00;;;12.19;72.02
45888;BME280;31595;51.418;7.572;2023-03-18T04:30:39;99614.59;;;12.08;72.03
45888;BME280;31595;51.418;7.572;2023-03-18T04:33:06;99607.50;;;12.10;72.30
45888;BME280;31595;51.418;7.572;2023-03-18T04:35:34;99610.16;;;12.07;72.34
45888;BME280;31595;51.418;7.572;2023-03-18T04:38:02;99618.06;;;12.05;72.67
45888;BME280;31595;51.418;7.572;2023-03-18T04:40:29;99623.56;;;12.01;72.74
45888;BME280;31595;51.418;7.572;2023-03-18T04:42:57;99631.56;;;12.03;72.72
45888;BME280;31595;51.418;7.572;2023-03-18T04:45:26;99633.06;;;12.00;73.00
45888;BME280;31595;51.418;7.572;2023-03-18T04:47:54;99637.13;;;12.03;73.32
45888;BME280;31595;51.418;7.572;2023-03-18T04:50:21;99631.56;;;12.03;73.14
45888;BME280;31595;51.418;7.572;2023-03-18T04:52:49;99639.00;;;11.98;73.29
45888;BME280;31595;51.418;7.572;2023-03-18T04:55:17;99630.28;;;12.00;73.34
45888;BME280;31595;51.418;7.572;2023-03-18T04:57:46;99637.50;;;12.01;72.96
45888;BME280;31595;51.418;7.572;2023-03-18T05:00:17;99638.03;;;11.94;73.64
45888;BME280;31595;51.418;7.572;2023-03-18T05:02:47;99638.31;;;12.02;72.55
45888;BME280;31595;51.418;7.572;2023-03-18T05:05:15;99642.16;;;11.97;73.68
45888;BME280;31595;51.418;7.572;2023-03-18T05:07:43;99640.63;;;12.00;73.09
45888;BME280;31595;51.418;7.572;2023-03-18T05:10:10;99639.94;;;12.03;73.25
45888;BME280;31595;51.418;7.572;2023-03-18T05:12:38;99640.41;;;12.05;73.29
45888;BME280;31595;51.418;7.572;2023-03-18T05:15:06;99638.22;;;12.10;72.98
45888;BME280;31595;51.418;7.572;2023-03-18T05:17:33;99647.88;;;12.13;72.92
45888;BME280;31595;51.418;7.572;2023-03-18T05:20:02;99634.03;;;12.16;72.77
45888;BME280;31595;51.418;7.572;2023-03-18T05:22:30;99640.91;;;12.19;72.58
45888;BME280;31595;51.418;7.572;2023-03-18T05:24:57;99640.69;;;12.24;72.64
45888;BME280;31595;51.418;7.572;2023-03-18T05:27:24;99643.84;;;12.35;72.30
45888;BME280;31595;51.418;7.572;2023-03-18T05:29:53;99648.53;;;12.43;71.80
45888;BME280;31595;51.418;7.572;2023-03-18T05:32:20;99643.63;;;12.40;71.84
45888;BME280;31595;51.418;7.572;2023-03-18T05:34:48;99642.56;;;12.45;71.77
45888;BME280;31595;51.418;7.572;2023-03-18T05:37:16;99642.94;;;12.55;70.97
45888;BME280;31595;51.418;7.572;2023-03-18T05:39:44;99636.66;;;12.58;70.72
45888;BME280;31595;51.418;7.572;2023-03-18T05:42:12;99654.34;;;12.63;70.77
45888;BME280;31595;51.418;7.572;2023-03-18T05:44:39;99648.66;;;12.71;70.36
45888;BME280;31595;51.418;7.572;2023-03-18T05:47:07;99647.72;;;12.67;70.05
45888;BME280;31595;51.418;7.572;2023-03-18T05:49:35;99642.72;;;12.61;70.58
45888;BME280;31595;51.418;7.572;2023-03-18T05:52:02;99649.91;;;12.74;70.10
45888;BME280;31595;51.418;7.572;2023-03-18T05:54:31;99653.53;;;12.74;69.77
45888;BME280;31595;51.418;7.572;2023-03-18T05:56:58;99657.38;;;12.70;70.08
45888;BME280;31595;51.418;7.572;2023-03-18T05:59:28;99659.25;;;12.78;69.97
45888;BME280;31595;51.418;7.572;2023-03-18T06:02:07;99666.09;;;12.80;69.65
45888;BME280;31595;51.418;7.572;2023-03-18T06:04:37;99659.97;;;12.87;68.91
45888;BME280;31595;51.418;7.572;2023-03-18T06:07:05;99655.25;;;12.91;69.00
45888;BME280;31595;51.418;7.572;2023-03-18T06:09:34;99666.44;;;12.91;68.00
45888;BME280;31595;51.418;7.572;2023-03-18T06:12:01;99665.28;;;13.05;68.84
45888;BME280;31595;51.418;7.572;2023-03-18T06:14:30;99662.25;;;13.10;68.06
45888;BME280;31595;51.418;7.572;2023-03-18T06:16:57;99673.66;;;13.17;68.11
45888;BME280;31595;51.418;7.572;2023-03-18T06:19:25;99672.03;;;13.16;67.75
45888;BME280;31595;51.418;7.572;2023-03-18T06:21:53;99676.34;;;13.26;68.10
45888;BME280;31595;51.418;7.572;2023-03-18T06:24:20;99680.56;;;13.32;67.65
45888;BME280;31595;51.418;7.572;2023-03-18T06:26:49;99690.78;;;13.28;67.46
45888;BME280;31595;51.418;7.572;2023-03-18T06:29:16;99680.06;;;13.42;67.20
45888;BME280;31595;51.418;7.572;2023-03-18T06:31:44;99680.06;;;13.42;66.30
45888;BME280;31595;51.418;7.572;2023-03-18T06:34:12;99691.34;;;13.46;66.66
45888;BME280;31595;51.418;7.572;2023-03-18T06:36:39;99689.94;;;13.52;66.79
45888;BME280;31595;51.418;7.572;2023-03-18T06:39:07;99693.44;;;13.49;65.56
45888;BME280;31595;51.418;7.572;2023-03-18T06:41:35;99704.38;;;13.54;65.54
45888;BME280;31595;51.418;7.572;2023-03-18T06:44:04;99703.47;;;13.50;66.03
45888;BME280;31595;51.418;7.572;2023-03-18T06:46:31;99706.84;;;13.55;65.20
45888;BME280;31595;51.418;7.572;2023-03-18T06:48:59;99711.94;;;13.66;65.17
45888;BME280;31595;51.418;7.572;2023-03-18T06:51:26;99717.88;;;13.64;65.17
45888;BME280;31595;51.418;7.572;2023-03-18T06:53:54;99711.13;;;13.65;65.44
45888;BME280;31595;51.418;7.572;2023-03-18T06:56:21;99711.34;;;13.72;64.73
45888;BME280;31595;51.418;7.572;2023-03-18T06:58:48;99717.13;;;13.79;64.54
45888;BME280;31595;51.418;7.572;2023-03-18T07:01:17;99720.31;;;13.78;64.96
45888;BME280;31595;51.418;7.572;2023-03-18T07:03:45;99715.66;;;13.70;65.32
45888;BME280;31595;51.418;7.572;2023-03-18T07:06:14;99724.06;;;13.70;65.58
45888;BME280;31595;51.418;7.572;2023-03-18T07:08:41;99721.25;;;13.70;64.49
45888;BME280;31595;51.418;7.572;2023-03-18T07:11:09;99725.53;;;13.79;65.43
45888;BME280;31595;51.418;7.572;2023-03-18T07:13:36;99732.81;;;13.68;64.60
45888;BME280;31595;51.418;7.572;2023-03-18T07:16:04;99722.38;;;13.81;64.14
45888;BME280;31595;51.418;7.572;2023-03-18T07:18:33;99732.50;;;13.86;64.97
45888;BME280;31595;51.418;7.572;2023-03-18T07:21:00;99742.28;;;13.92;63.80
45888;BME280;31595;51.418;7.572;2023-03-18T07:23:27;99743.13;;;13.92;64.70
45888;BME280;31595;51.418;7.572;2023-03-18T07:25:55;99742.44;;;13.83;64.53
45888;BME280;31595;51.418;7.572;2023-03-18T07:28:22;99740.78;;;13.94;63.54
45888;BME280;31595;51.418;7.572;2023-03-18T07:30:49;99748.00;;;13.95;64.38
45888;BME280;31595;51.418;7.572;2023-03-18T07:33:17;99745.31;;;13.99;64.62
45888;BME280;31595;51.418;7.572;2023-03-18T07:35:45;99745.47;;;14.18;62.31
45888;BME280;31595;51.418;7.572;2023-03-18T07:38:13;99748.69;;;14.33;62.96
45888;BME280;31595;51.418;7.572;2023-03-18T07:40:40;99746.50;;;14.26;62.95
45888;BME280;31595;51.418;7.572;2023-03-18T07:43:07;99748.94;;;14.56;62.05
45888;BME280;31595;51.418;7.572;2023-03-18T07:45:35;99754.84;;;14.67;61.63
45888;BME280;31595;51.418;7.572;2023-03-18T07:48:02;99749.16;;;14.79;60.93
45888;BME280;31595;51.418;7.572;2023-03-18T07:50:30;99753.94;;;14.94;60.71
45888;BME280;31595;51.418;7.572;2023-03-18T07:52:59;99755.91;;;15.10;60.56
45888;BME280;31595;51.418;7.572;2023-03-18T07:55:26;99754.44;;;15.48;59.91
45888;BME280;31595;51.418;7.572;2023-03-18T07:57:53;99758.91;;;15.68;58.17
45888;BME280;31595;51.418;7.572;2023-03-18T08:00:22;99761.63;;;15.80;57.41
45888;BME280;31595;51.418;7.572;2023-03-18T08:02:50;99759.44;;;16.29;56.43
45888;BME280;31595;51.418;7.572;2023-03-18T08:05:17;99754.31;;;16.54;55.60
45888;BME280;31595;51.418;7.572;2023-03-18T08:07:47;99759.94;;;16.77;54.55
45888;BME280;31595;51.418;7.572;2023-03-18T08:10:16;99757.53;;;16.98;54.01
45888;BME280;31595;51.418;7.572;2023-03-18T08:12:43;99767.63;;;16.99;53.80
45888;BME280;31595;51.418;7.572;2023-03-18T08:15:11;99775.69;;;17.24;53.11
45888;BME280;31595;51.418;7.572;2023-03-18T08:17:38;99774.13;;;17.27;52.28
45888;BME280;31595;51.418;7.572;2023-03-18T08:20:07;99770.03;;;16.78;53.94
45888;BME280;31595;51.418;7.572;2023-03-18T08:22:34;99782.75;;;16.72;53.78
45888;BME280;31595;51.418;7.572;2023-03-18T08:25:01;99782.69;;;16.68;54.00
45888;BME280;31595;51.418;7.572;2023-03-18T08:27:30;99783.22;;;16.54;54.45
45888;BME280;31595;51.418;7.572;2023-03-18T08:29:57;99786.94;;;16.39;55.12
45888;BME280;31595;51.418;7.572;2023-03-18T08:32:25;99792.91;;;16.37;54.48
45888;BME280;31595;51.418;7.572;2023-03-18T08:34:52;99793.03;;;16.83;54.15
45888;BME280;31595;51.418;7.572;2023-03-18T08:37:20;99797.19;;;16.90;53.45
45888;BME280;31595;51.418;7.572;2023-03-18T08:39:48;99793.25;;;16.75;53.02
45888;BME280;31595;51.418;7.572;2023-03-18T08:42:15;99801.38;;;16.57;54.31
45888;BME280;31595;51.418;7.572;2023-03-18T08:44:45;99805.56;;;16.67;53.58
45888;BME280;31595;51.418;7.572;2023-03-18T08:47:13;99811.63;;;16.69;53.56
45888;BME280;31595;51.418;7.572;2023-03-18T08:49:40;99803.44;;;17.02;52.65
45888;BME280;31595;51.418;7.572;2023-03-18T08:52:08;99814.44;;;17.34;51.89
45888;BME280;31595;51.418;7.572;2023-03-18T08:54:35;99804.88;;;17.39;51.92
45888;BME280;31595;51.418;7.572;2023-03-18T08:57:02;99802.34;;;17.57;51.53
45888;BME280;31595;51.418;7.572;2023-03-18T08:59:30;99805.75;;;17.70;51.15
45888;BME280;31595;51.418;7.572;2023-03-18T09:01:58;99795.59;;;17.88;51.34
45888;BME280;31595;51.418;7.572;2023-03-18T09:04:26;99799.81;;;17.75;50.58
45888;BME280;31595;51.418;7.572;2023-03-18T09:06:54;99799.34;;;17.99;49.85
45888;BME280;31595;51.418;7.572;2023-03-18T09:09:21;99805.00;;;17.99;50.52
45888;BME280;31595;51.418;7.572;2023-03-18T09:11:48;99819.47;;;18.96;47.58
45888;BME280;31595;51.418;7.572;2023-03-18T09:14:16;99811.28;;;18.83;48.15
45888;BME280;31595;51.418;7.572;2023-03-18T09:16:43;99817.31;;;18.48;49.22
45888;BME280;31595;51.418;7.572;2023-03-18T09:19:12;99812.13;;;18.50;48.82
45888;BME280;31595;51.418;7.572;2023-03-18T09:21:39;99806.72;;;18.72;47.81
45888;BME280;31595;51.418;7.572;2023-03-18T09:24:06;99806.59;;;19.39;46.61
45888;BME280;31595;51.418;7.572;2023-03-18T09:26:34;99805.25;;;20.44;45.00
45888;BME280;31595;51.418;7.572;2023-03-18T09:29:01;99817.09;;;20.78;44.20
45888;BME280;31595;51.418;7.572;2023-03-18T09:31:28;99812.38;;;21.51;43.18
45888;BME280;31595;51.418;7.572;2023-03-18T09:33:55;99815.72;;;22.69;40.28
45888;BME280;31595;51.418;7.572;2023-03-18T09:36:24;99822.00;;;22.25;39.31
45888;BME280;31595;51.418;7.572;2023-03-18T09:38:53;99821.25;;;21.56;40.78
45888;BME280;31595;51.418;7.572;2023-03-18T09:41:27;99821.66;;;21.26;41.67
45888;BME280;31595;51.418;7.572;2023-03-18T09:44:04;99825.72;;;21.82;40.12
45888;BME280;31595;51.418;7.572;2023-03-18T09:46:44;99818.53;;;22.73;39.27
45888;BME280;31595;51.418;7.572;2023-03-18T09:49:22;99813.72;;;22.70;38.55
45888;BME280;31595;51.418;7.572;2023-03-18T09:52:03;99818.94;;;22.79;38.35
45888;BME280;31595;51.418;7.572;2023-03-18T09:54:36;99814.69;;;22.27;38.88
45888;BME280;31595;51.418;7.572;2023-03-18T09:57:13;99821.91;;;24.52;34.91
45888;BME280;31595;51.418;7.572;2023-03-18T09:59:45;99808.13;;;25.83;33.42
45888;BME280;31595;51.418;7.572;2023-03-18T10:02:20;99811.47;;;26.45;32.24
45888;BME280;31595;51.418;7.572;2023-03-18T10:04:53;99803.88;;;28.93;28.63
45888;BME280;31595;51.418;7.572;2023-03-18T10:07:27;99788.16;;;30.10;26.49
45888;BME280;31595;51.418;7.572;2023-03-18T10:09:59;99802.00;;;31.90;24.72
45888;BME280;31595;51.418;7.572;2023-03-18T10:12:31;99794.09;;;31.53;24.74
45888;BME280;31595;51.418;7.572;2023-03-18T10:15:09;99794.53;;;32.20;24.89
45888;BME280;31595;51.418;7.572;2023-03-18T10:17:42;99806.22;;;32.26;23.57
45888;BME280;31595;51.418;7.572;2023-03-18T10:20:16;99803.19;;;32.11;24.03
45888;BME280;31595;51.418;7.572;2023-03-18T10:23:03;99792.28;;;32.15;22.82
45888;BME280;31595;51.418;7.572;2023-03-18T10:25:35;99799.50;;;33.08;22.83
45888;BME280;31595;51.418;7.572;2023-03-18T10:28:26;99791.72;;;34.05;21.68
45888;BME280;31595;51.418;7.572;2023-03-18T10:31:06;99799.66;;;35.74;19.99
45888;BME280;31595;51.418;7.572;2023-03-18T10:33:42;99791.06;;;36.00;20.03
45888;BME280;31595;51.418;7.572;2023-03-18T10:36:17;99793.22;;;35.64;19.31
45888;BME280;31595;51.418;7.572;2023-03-18T10:38:47;99785.31;;;36.26;19.23
45888;BME280;31595;51.418;7.572;2023-03-18T10:41:19;99787.03;;;36.91;18.24
45888;BME280;31595;51.418;7.572;2023-03-18T10:43:49;99784.19;;;38.43;17.77
45888;BME280;31595;51.418;7.572;2023-03-18T10:46:19;99781.88;;;38.75;17.09
45888;BME280;31595;51.418;7.572;2023-03-18T10:48:49;99784.25;;;38.88;16.82
45888;BME280;31595;51.418;7.572;2023-03-18T10:51:21;99790.88;;;38.88;16.96
45888;BME280;31595;51.418;7.572;2023-03-18T10:53:55;99780.47;;;39.61;16.30
45888;BME280;31595;51.418;7.572;2023-03-18T10:56:24;99782.59;;;39.66;16.02
45888;BME280;31595;51.418;7.572;2023-03-18T10:58:52;99783.63;;;39.74;15.72
45888;BME280;31595;51.418;7.572;2023-03-18T11:01:20;99778.56;;;39.91;15.82
45888;BME280;31595;51.418;7.572;2023-03-18T11:03:52;99769.56;;;40.78;14.89
45888;BME280;31595;51.418;7.572;2023-03-18T11:06:22;99778.19;;;40.12;15.40
45888;BME280;31595;51.418;7.572;2023-03-18T11:09:00;99771.84;;;37.93;16.77
45888;BME280;31595;51.418;7.572;2023-03-18T11:11:31;99778.03;;;36.89;17.57
45888;BME280;31595;51.418;7.572;2023-03-18T11:14:01;99777.88;;;37.78;17.09
45888;BME280;31595;51.418;7.572;2023-03-18T11:16:33;99768.91;;;37.39;17.72
45888;BME280;31595;51.418;7.572;2023-03-18T11:19:06;99773.91;;;37.33;17.58
45888;BME280;31595;51.418;7.572;2023-03-18T11:21:34;99769.88;;;38.33;16.99
45888;BME280;31595;51.418;7.572;2023-03-18T11:24:23;99765.84;;;39.89;15.39
45888;BME280;31595;51.418;7.572;2023-03-18T11:27:01;99764.91;;;41.24;14.85
45888;BME280;31595;51.418;7.572;2023-03-18T11:29:30;99768.50;;;43.12;13.63
45888;BME280;31595;51.418;7.572;2023-03-18T11:31:59;99765.38;;;43.64;13.39
45888;BME280;31595;51.418;7.572;2023-03-18T11:34:29;99773.81;;;42.63;13.32
45888;BME280;31595;51.418;7.572;2023-03-18T11:36:58;99763.47;;;41.06;14.86
45888;BME280;31595;51.418;7.572;2023-03-18T11:39:33;99759.53;;;43.37;13.12
45888;BME280;31595;51.418;7.572;2023-03-18T11:42:15;99755.78;;;45.35;11.92
45888;BME280;31595;51.418;7.572;2023-03-18T11:44:43;99758.69;;;45.06;12.11
45888;BME280;31595;51.418;7.572;2023-03-18T11:47:13;99761.84;;;45.94;11.33
45888;BME280;31595;51.418;7.572;2023-03-18T11:49:45;99749.84;;;45.56;11.82
45888;BME280;31595;51.418;7.572;2023-03-18T11:52:28;99758.53;;;45.33;12.00
45888;BME280;31595;51.418;7.572;2023-03-18T11:55:36;99752.09;;;45.13;11.63
45888;BME280;31595;51.418;7.572;2023-03-18T12:01:01;99738.88;;;46.37;11.57
45888;BME280;31595;51.418;7.572;2023-03-18T12:06:40;99752.38;;;42.54;13.02
45888;BME280;31595;51.418;7.572;2023-03-18T12:09:15;99748.31;;;39.94;14.60
45888;BME280;31595;51.418;7.572;2023-03-18T12:11:56;99740.13;;;43.34;13.13
45888;BME280;31595;51.418;7.572;2023-03-18T12:14:30;99739.63;;;44.23;12.12
45888;BME280;31595;51.418;7.572;2023-03-18T12:17:14;99737.44;;;39.08;15.45
45888;BME280;31595;51.418;7.572;2023-03-18T12:19:56;99742.81;;;39.74;15.06
45888;BME280;31595;51.418;7.572;2023-03-18T12:28:22;99749.91;;;46.00;10.82
45888;BME280;31595;51.418;7.572;2023-03-18T12:31:04;99746.78;;;44.70;11.52
45888;BME280;31595;51.418;7.572;2023-03-18T12:33:46;99764.41;;;43.02;11.84
45888;BME280;31595;51.418;7.572;2023-03-18T12:36:24;99749.03;;;39.14;14.74
45888;BME280;31595;51.418;7.572;2023-03-18T12:42:01;99743.00;;;41.61;13.72
45888;BME280;31595;51.418;7.572;2023-03-18T12:44:55;99760.69;;;37.75;16.19
45888;BME280;31595;51.418;7.572;2023-03-18T12:47:29;99770.88;;;33.29;19.35
45888;BME280;31595;51.418;7.572;2023-03-18T12:50:01;99746.00;;;35.79;17.80
45888;BME280;31595;51.418;7.572;2023-03-18T12:52:35;99747.47;;;38.73;15.57
45888;BME280;31595;51.418;7.572;2023-03-18T12:55:10;99750.72;;;35.05;18.35
45888;BME280;31595;51.418;7.572;2023-03-18T12:57:44;99756.22;;;33.66;18.98
45888;BME280;31595;51.418;7.572;2023-03-18T13:00:20;99752.97;;;35.31;17.54
45888;BME280;31595;51.418;7.572;2023-03-18T13:02:59;99753.94;;;33.46;19.40
45888;BME280;31595;51.418;7.572;2023-03-18T13:05:35;99729.69;;;34.15;19.48
45888;BME280;31595;51.418;7.572;2023-03-18T13:11:50;99741.03;;;32.19;20.39
45888;BME280;31595;51.418;7.572;2023-03-18T13:14:25;99735.25;;;30.20;22.25
45888;BME280;31595;51.418;7.572;2023-03-18T13:16:56;99755.97;;;28.94;23.81
45888;BME280;31595;51.418;7.572;2023-03-18T13:19:24;99751.28;;;28.03;25.11
45888;BME280;31595;51.418;7.572;2023-03-18T13:21:57;99739.16;;;27.37;25.69
45888;BME280;31595;51.418;7.572;2023-03-18T13:24:41;99745.94;;;27.27;25.80
45888;BME280;31595;51.418;7.572;2023-03-18T13:27:32;99740.34;;;26.50;26.72
45888;BME280;31595;51.418;7.572;2023-03-18T13:30:11;99753.69;;;25.97;28.09
45888;BME280;31595;51.418;7.572;2023-03-18T13:35:58;99739.38;;;25.77;28.31